createdAt,value
2019-05-01T00:02:02.019Z,22.77
2019-05-01T00:04:51.501Z,22.30
2019-05-01T00:07:26.071Z,23.73
2019-05-01T00:09:55.296Z,22.77
2019-05-01T00:12:24.992Z,23.60
2019-05-01T00:14:54.203Z,24.03
2019-05-01T00:17:24.121Z,23.67
2019-05-01T00:19:53.345Z,23.63
2019-05-01T00:22:22.497Z,23.40
2019-05-01T00:24:51.873Z,24.40
2019-05-01T00:27:21.232Z,24.53
2019-05-01T00:29:50.478Z,23.80
2019-05-01T00:32:19.746Z,25.47
2019-05-01T00:34:51.889Z,25.30
2019-05-01T00:37:21.961Z,25.73
2019-05-01T00:39:51.406Z,24.90
2019-05-01T00:42:20.729Z,25.73
2019-05-01T00:44:50.009Z,25.83
2019-05-01T00:47:19.190Z,27.63
2019-05-01T00:49:48.508Z,26.97
2019-05-01T00:52:17.661Z,26.37
2019-05-01T00:54:48.571Z,28.10
2019-05-01T00:57:27.048Z,41.97
2019-05-01T01:00:14.371Z,36.77
2019-05-01T01:02:46.630Z,34.37
2019-05-01T01:05:15.797Z,28.20
2019-05-01T01:07:45.069Z,27.53
2019-05-01T01:10:14.472Z,26.77
2019-05-01T01:12:43.825Z,28.53
2019-05-01T01:15:13.076Z,28.23
2019-05-01T01:17:42.467Z,26.10
2019-05-01T01:20:11.758Z,26.80
2019-05-01T01:22:40.892Z,28.20
2019-05-01T01:25:10.326Z,27.27
2019-05-01T01:27:39.530Z,27.23
2019-05-01T01:30:09.478Z,29.07
2019-05-01T01:32:38.625Z,29.13
2019-05-01T01:35:08.449Z,27.73
2019-05-01T01:37:37.620Z,27.97
2019-05-01T01:40:06.995Z,27.30
2019-05-01T01:42:36.757Z,28.67
2019-05-01T01:45:18.370Z,29.73
2019-05-01T01:48:05.621Z,27.30
2019-05-01T01:50:35.176Z,27.00
2019-05-01T01:53:04.623Z,27.90
2019-05-01T01:55:33.931Z,29.10
2019-05-01T01:58:03.586Z,28.40
2019-05-01T02:01:09.341Z,27.27
2019-05-01T02:03:34.150Z,27.57
2019-05-01T02:06:03.435Z,27.57
2019-05-01T02:08:32.727Z,27.90
2019-05-01T02:11:03.036Z,28.13
2019-05-01T02:13:32.267Z,28.03
2019-05-01T02:16:01.565Z,28.90
2019-05-01T02:18:30.886Z,27.17
2019-05-01T02:21:00.261Z,28.47
2019-05-01T02:23:29.537Z,28.33
2019-05-01T02:25:58.823Z,27.70
2019-05-01T02:28:34.350Z,28.77
2019-05-01T02:31:35.816Z,28.20
2019-05-01T02:34:06.131Z,26.63
2019-05-01T02:36:36.985Z,27.53
2019-05-01T02:39:07.868Z,26.17
2019-05-01T02:41:41.430Z,27.83
2019-05-01T02:44:15.929Z,27.60
2019-05-01T02:46:46.710Z,25.67
2019-05-01T02:49:19.216Z,25.10
2019-05-01T02:51:48.809Z,26.93
2019-05-01T02:54:18.798Z,26.07
2019-05-01T02:56:55.091Z,25.37
2019-05-01T02:59:26.071Z,25.23
2019-05-01T03:01:55.472Z,25.93
2019-05-01T03:04:25.001Z,24.83
2019-05-01T03:06:54.226Z,24.40
2019-05-01T03:09:23.924Z,23.83
2019-05-01T03:11:54.368Z,24.50
2019-05-01T03:14:24.557Z,24.40
2019-05-01T03:16:55.420Z,24.63
2019-05-01T03:19:43.458Z,25.23
2019-05-01T03:22:27.028Z,24.80
2019-05-01T03:24:56.335Z,24.33
2019-05-01T03:27:25.741Z,24.23
2019-05-01T03:29:54.957Z,25.83
2019-05-01T03:32:24.126Z,26.60
2019-05-01T03:34:53.584Z,26.57
2019-05-01T03:37:23.102Z,27.97
2019-05-01T03:39:53.120Z,28.17
2019-05-01T03:42:23.487Z,27.90
2019-05-01T03:44:53.766Z,28.07
2019-05-01T03:47:23.170Z,28.40
2019-05-01T03:49:52.531Z,28.17
2019-05-01T03:52:21.956Z,28.20
2019-05-01T03:54:51.090Z,29.43
2019-05-01T03:57:20.438Z,29.20
2019-05-01T03:59:49.659Z,27.90
2019-05-01T04:02:33.632Z,28.40
2019-05-01T04:04:57.623Z,29.83
2019-05-01T04:07:27.010Z,29.23
2019-05-01T04:09:56.230Z,28.77
2019-05-01T04:12:25.708Z,29.13
2019-05-01T04:14:55.758Z,28.50
2019-05-01T04:17:32.260Z,28.90
2019-05-01T04:20:01.643Z,28.43
2019-05-01T04:22:30.926Z,28.83
2019-05-01T04:25:00.200Z,28.90
2019-05-01T04:27:34.376Z,29.43
2019-05-01T04:30:20.219Z,30.53
2019-05-01T04:32:53.012Z,29.60
2019-05-01T04:35:39.342Z,29.30
2019-05-01T04:38:09.170Z,29.70
2019-05-01T04:40:38.616Z,28.60
2019-05-01T04:43:08.014Z,29.37
2019-05-01T04:45:37.381Z,27.83
2019-05-01T04:48:06.639Z,28.67
2019-05-01T04:50:36.017Z,28.67
2019-05-01T04:53:06.134Z,27.07
2019-05-01T04:55:35.460Z,27.67
2019-05-01T04:58:04.794Z,28.23
2019-05-01T05:00:34.230Z,28.37
2019-05-01T05:03:07.711Z,26.70
2019-05-01T05:05:37.253Z,27.33
2019-05-01T05:08:06.398Z,26.43
2019-05-01T05:10:35.595Z,26.93
2019-05-01T05:13:20.258Z,27.80
2019-05-01T05:16:00.383Z,28.30
2019-05-01T05:18:29.914Z,26.40
2019-05-01T05:21:00.052Z,25.93
2019-05-01T05:23:29.858Z,26.33
2019-05-01T05:25:59.221Z,28.97
2019-05-01T05:28:31.283Z,28.13
2019-05-01T05:31:01.710Z,27.10
2019-05-01T05:33:32.455Z,26.87
2019-05-01T05:36:02.223Z,28.07
2019-05-01T05:38:44.862Z,25.87
2019-05-01T05:41:14.697Z,23.40
2019-05-01T05:43:44.029Z,25.80
2019-05-01T05:46:13.374Z,25.97
2019-05-01T05:48:42.826Z,26.60
2019-05-01T05:51:36.138Z,25.57
2019-05-01T05:54:33.639Z,23.70
2019-05-01T05:57:11.506Z,21.40
2019-05-01T05:59:44.491Z,22.47
2019-05-01T06:02:29.434Z,21.00
2019-05-01T06:05:20.339Z,21.77
2019-05-01T06:08:10.604Z,21.47
2019-05-01T06:11:00.171Z,21.57
2019-05-01T06:13:58.942Z,21.00
2019-05-01T06:16:40.563Z,20.67
2019-05-01T06:19:49.744Z,19.83
2019-05-01T06:22:40.703Z,19.07
2019-05-01T06:25:22.570Z,20.43
2019-05-01T06:27:53.846Z,18.97
2019-05-01T06:30:23.080Z,19.30
2019-05-01T06:32:52.374Z,19.07
2019-05-01T06:35:21.712Z,19.70
2019-05-01T06:38:00.645Z,19.47
2019-05-01T06:40:42.953Z,19.93
2019-05-01T06:43:20.249Z,20.60
2019-05-01T06:45:55.839Z,19.57
2019-05-01T06:48:26.085Z,19.73
2019-05-01T06:51:00.283Z,20.03
2019-05-01T06:53:29.703Z,18.60
2019-05-01T06:55:58.880Z,18.87
2019-05-01T06:58:28.132Z,18.97
2019-05-01T07:00:57.345Z,19.07
2019-05-01T07:03:26.590Z,19.40
2019-05-01T07:05:56.303Z,19.47
2019-05-01T07:08:29.473Z,20.17
2019-05-01T07:10:58.560Z,19.23
2019-05-01T07:13:28.715Z,18.93
2019-05-01T07:16:00.517Z,18.40
2019-05-01T07:18:29.387Z,17.00
2019-05-01T07:20:58.963Z,17.40
2019-05-01T07:23:29.019Z,16.70
2019-05-01T07:25:58.213Z,16.93
2019-05-01T07:28:34.362Z,17.73
2019-05-01T07:31:06.540Z,17.43
2019-05-01T07:33:36.056Z,17.33
2019-05-01T07:36:07.085Z,17.57
2019-05-01T07:38:40.960Z,17.97
2019-05-01T07:41:13.026Z,17.90
2019-05-01T07:44:20.003Z,16.47
2019-05-01T07:47:11.297Z,15.63
2019-05-01T07:49:52.846Z,15.93
2019-05-01T07:52:21.790Z,15.63
2019-05-01T07:54:52.096Z,16.17
2019-05-01T07:57:23.160Z,15.60
2019-05-01T07:59:53.200Z,15.50
2019-05-01T08:02:25.951Z,15.70
2019-05-01T08:04:53.450Z,16.20
2019-05-01T08:07:32.273Z,15.50
2019-05-01T08:09:58.833Z,16.00
2019-05-01T08:12:28.790Z,15.83
2019-05-01T08:14:58.315Z,16.10
2019-05-01T08:17:29.834Z,16.40
2019-05-01T08:20:24.549Z,15.77
2019-05-01T08:22:53.735Z,15.50
2019-05-01T08:25:22.862Z,15.90
2019-05-01T08:28:10.272Z,16.30
2019-05-01T08:30:55.664Z,17.50
2019-05-01T08:33:39.738Z,17.33
2019-05-01T08:36:11.578Z,16.37
2019-05-01T08:38:41.347Z,17.17
2019-05-01T08:41:12.236Z,16.17
2019-05-01T08:43:41.584Z,15.20
2019-05-01T08:46:28.608Z,14.80
2019-05-01T08:49:06.872Z,15.13
2019-05-01T08:51:36.058Z,14.97
2019-05-01T08:54:05.712Z,15.67
2019-05-01T08:56:34.968Z,16.17
2019-05-01T08:59:04.436Z,16.33
2019-05-01T09:01:33.987Z,15.10
2019-05-01T09:04:12.578Z,15.03
2019-05-01T09:06:39.033Z,16.43
2019-05-01T09:09:08.021Z,15.90
2019-05-01T09:11:38.566Z,16.87
2019-05-01T09:14:07.799Z,15.93
2019-05-01T09:16:37.025Z,15.07
2019-05-01T09:19:06.708Z,14.00
2019-05-01T09:21:37.726Z,13.77
2019-05-01T09:24:07.680Z,13.80
2019-05-01T09:26:52.616Z,14.47
2019-05-01T09:29:26.691Z,14.40
2019-05-01T09:31:55.995Z,14.90
2019-05-01T09:34:25.343Z,14.10
2019-05-01T09:36:54.547Z,14.43
2019-05-01T09:39:24.827Z,13.97
2019-05-01T09:41:54.371Z,13.33
2019-05-01T09:44:23.698Z,12.93
2019-05-01T09:46:53.055Z,13.03
2019-05-01T09:49:22.724Z,11.83
2019-05-01T09:52:18.897Z,12.60
2019-05-01T09:55:05.401Z,11.23
2019-05-01T09:57:36.520Z,18.00
2019-05-01T10:00:08.857Z,12.10
2019-05-01T10:02:42.120Z,12.17
2019-05-01T10:05:28.231Z,11.63
2019-05-01T10:07:46.804Z,11.67
2019-05-01T10:10:16.129Z,11.73
2019-05-01T10:12:46.939Z,12.57
2019-05-01T10:15:16.312Z,11.87
2019-05-01T10:17:45.763Z,11.50
2019-05-01T10:20:16.086Z,12.03
2019-05-01T10:22:45.293Z,11.30
2019-05-01T10:25:14.597Z,11.03
2019-05-01T10:27:48.650Z,11.13
2019-05-01T10:30:36.032Z,10.87
2019-05-01T10:33:05.992Z,10.83
2019-05-01T10:35:45.448Z,10.60
2019-05-01T10:38:14.815Z,10.97
2019-05-01T10:40:44.144Z,11.87
2019-05-01T10:43:13.307Z,10.60
2019-05-01T10:45:42.559Z,10.70
2019-05-01T10:48:11.692Z,9.77
2019-05-01T10:50:40.903Z,9.83
2019-05-01T10:53:11.091Z,9.97
2019-05-01T10:55:40.474Z,9.47
2019-05-01T10:58:12.753Z,10.33
2019-05-01T11:00:43.427Z,11.97
2019-05-01T11:03:12.725Z,11.13
2019-05-01T11:05:54.719Z,10.23
2019-05-01T11:08:12.811Z,10.93
2019-05-01T11:10:41.963Z,11.10
2019-05-01T11:13:11.112Z,10.30
2019-05-01T11:15:40.260Z,11.10
2019-05-01T11:18:10.381Z,10.20
2019-05-01T11:21:01.660Z,10.23
2019-05-01T11:23:28.954Z,10.30
2019-05-01T11:25:58.190Z,9.27
2019-05-01T11:28:27.330Z,9.57
2019-05-01T11:30:59.280Z,8.27
2019-05-01T11:33:48.158Z,8.43
2019-05-01T11:36:45.125Z,8.50
2019-05-01T11:39:23.668Z,9.10
2019-05-01T11:41:57.133Z,8.17
2019-05-01T11:44:26.547Z,8.20
2019-05-01T11:46:55.703Z,8.30
2019-05-01T11:49:24.868Z,8.57
2019-05-01T11:51:54.106Z,9.13
2019-05-01T11:54:23.413Z,8.47
2019-05-01T11:56:52.625Z,9.07
2019-05-01T11:59:22.191Z,9.30
2019-05-01T12:01:54.032Z,8.60
2019-05-01T12:04:23.230Z,9.13
2019-05-01T12:06:52.643Z,9.03
2019-05-01T12:09:23.046Z,10.40
2019-05-01T12:11:55.061Z,9.37
2019-05-01T12:14:24.693Z,9.07
2019-05-01T12:17:28.263Z,9.63
2019-05-01T12:19:57.769Z,9.50
2019-05-01T12:22:27.831Z,8.63
2019-05-01T12:24:57.039Z,8.57
2019-05-01T12:27:26.192Z,8.77
2019-05-01T12:29:55.550Z,9.37
2019-05-01T12:32:24.926Z,9.47
2019-05-01T12:34:54.068Z,9.37
2019-05-01T12:37:34.374Z,8.83
2019-05-01T12:40:03.933Z,9.17
2019-05-01T12:42:33.582Z,8.97
2019-05-01T12:45:02.884Z,8.47
2019-05-01T12:47:44.654Z,8.80
2019-05-01T12:50:13.939Z,9.23
2019-05-01T12:53:02.285Z,8.80
2019-05-01T12:55:56.934Z,8.50
2019-05-01T12:58:26.151Z,9.33
2019-05-01T13:00:56.117Z,8.43
2019-05-01T13:03:26.949Z,8.53
2019-05-01T13:05:56.151Z,8.90
2019-05-01T13:08:25.288Z,9.47
2019-05-01T13:10:54.470Z,8.80
2019-05-01T13:13:23.625Z,9.10
2019-05-01T13:15:53.022Z,8.57
2019-05-01T13:18:22.177Z,9.20
2019-05-01T13:20:51.333Z,9.00
2019-05-01T13:23:20.516Z,9.07
2019-05-01T13:25:50.366Z,9.33
2019-05-01T13:28:43.765Z,9.70
2019-05-01T13:31:32.102Z,9.70
2019-05-01T13:34:01.345Z,9.63
2019-05-01T13:36:30.488Z,10.67
2019-05-01T13:38:59.655Z,10.30
2019-05-01T13:41:28.894Z,12.43
2019-05-01T13:44:01.203Z,9.93
2019-05-01T13:46:30.348Z,9.13
2019-05-01T13:48:59.529Z,9.37
2019-05-01T13:51:28.768Z,9.80
2019-05-01T13:53:58.087Z,10.00
2019-05-01T13:56:27.342Z,9.33
2019-05-01T13:58:56.617Z,9.60
2019-05-01T14:01:26.772Z,9.70
2019-05-01T14:03:56.345Z,9.80
2019-05-01T14:06:25.624Z,11.23
2019-05-01T14:08:54.965Z,10.40
2019-05-01T14:11:24.255Z,11.00
2019-05-01T14:13:53.475Z,10.97
2019-05-01T14:16:22.841Z,10.47
2019-05-01T14:18:52.007Z,11.17
2019-05-01T14:21:28.347Z,10.20
2019-05-01T14:24:15.392Z,10.93
2019-05-01T14:26:44.661Z,11.30
2019-05-01T14:29:13.788Z,11.17
2019-05-01T14:31:42.913Z,10.73
2019-05-01T14:34:12.080Z,10.57
2019-05-01T14:36:41.293Z,11.33
2019-05-01T14:39:10.449Z,10.70
2019-05-01T14:41:39.828Z,11.17
2019-05-01T14:44:09.036Z,11.00
2019-05-01T14:46:38.337Z,11.03
2019-05-01T14:49:07.636Z,11.47
2019-05-01T14:51:36.892Z,11.47
2019-05-01T14:54:06.074Z,11.97
2019-05-01T14:56:35.271Z,11.37
2019-05-01T14:59:04.477Z,11.93
2019-05-01T15:01:33.717Z,12.33
2019-05-01T15:04:03.012Z,11.57
2019-05-01T15:06:32.165Z,12.50
2019-05-01T15:09:01.541Z,11.80
2019-05-01T15:11:32.710Z,11.33
2019-05-01T15:14:17.023Z,11.80
2019-05-01T15:16:50.798Z,12.57
2019-05-01T15:19:22.458Z,13.10
2019-05-01T15:21:51.647Z,12.60
2019-05-01T15:24:20.878Z,12.50
2019-05-01T15:26:50.181Z,12.77
2019-05-01T15:29:19.316Z,13.20
2019-05-01T15:31:48.618Z,13.17
2019-05-01T15:34:17.740Z,12.70
2019-05-01T15:36:47.073Z,17.97
2019-05-01T15:39:26.897Z,14.60
2019-05-01T15:42:30.678Z,14.20
2019-05-01T15:45:00.034Z,13.50
2019-05-01T15:47:29.247Z,14.23
2019-05-01T15:49:58.504Z,14.00
2019-05-01T15:52:27.716Z,14.43
2019-05-01T15:54:56.927Z,14.00
2019-05-01T15:57:26.275Z,12.87
2019-05-01T15:59:58.469Z,13.47
2019-05-01T16:02:27.774Z,13.70
2019-05-01T16:04:57.151Z,13.00
2019-05-01T16:07:26.502Z,13.57
2019-05-01T16:09:55.913Z,14.07
2019-05-01T16:12:31.048Z,13.70
2019-05-01T16:15:00.186Z,14.00
2019-05-01T16:17:29.543Z,14.70
2019-05-01T16:19:58.940Z,13.93
2019-05-01T16:22:28.143Z,15.40
2019-05-01T16:24:58.366Z,15.00
2019-05-01T16:27:27.627Z,14.83
2019-05-01T16:29:56.913Z,15.13
2019-05-01T16:32:26.005Z,14.17
2019-05-01T16:34:55.193Z,16.90
2019-05-01T16:37:24.446Z,14.73
2019-05-01T16:40:09.263Z,15.30
2019-05-01T16:42:40.894Z,16.40
2019-05-01T16:45:10.521Z,14.97
2019-05-01T16:47:39.650Z,14.43
2019-05-01T16:50:09.490Z,14.10
2019-05-01T16:52:39.473Z,14.80
2019-05-01T16:55:08.829Z,13.50
2019-05-01T16:57:37.966Z,13.70
2019-05-01T17:00:09.055Z,14.57
2019-05-01T17:02:56.986Z,14.53
2019-05-01T17:05:43.997Z,14.20
2019-05-01T17:08:17.399Z,14.60
2019-05-01T17:10:48.194Z,15.73
2019-05-01T17:13:17.499Z,13.93
2019-05-01T17:15:49.300Z,14.27
2019-05-01T17:18:19.080Z,15.37
2019-05-01T17:20:48.489Z,15.53
2019-05-01T17:23:17.932Z,14.33
2019-05-01T17:25:47.204Z,14.50
2019-05-01T17:28:16.351Z,14.73
2019-05-01T17:30:48.645Z,14.20
2019-05-01T17:33:20.673Z,14.27
2019-05-01T17:35:49.405Z,14.37
2019-05-01T17:38:48.766Z,12.80
2019-05-01T17:41:07.431Z,12.53
2019-05-01T17:43:36.804Z,11.47
2019-05-01T17:46:10.678Z,11.37
2019-05-01T17:48:37.467Z,10.60
2019-05-01T17:51:06.905Z,10.27
2019-05-01T17:53:38.476Z,10.30
2019-05-01T17:56:10.023Z,10.37
2019-05-01T17:58:43.493Z,10.40
2019-05-01T18:01:33.120Z,10.10
2019-05-01T18:04:30.763Z,9.57
2019-05-01T18:07:01.128Z,10.20
2019-05-01T18:09:34.055Z,12.30
2019-05-01T18:12:04.987Z,9.47
2019-05-01T18:14:34.180Z,9.33
2019-05-01T18:17:03.555Z,9.50
2019-05-01T18:19:32.722Z,10.03
2019-05-01T18:22:16.666Z,9.43
2019-05-01T18:25:20.268Z,9.43
2019-05-01T18:28:14.708Z,8.80
2019-05-01T18:30:45.366Z,9.67
2019-05-01T18:33:14.596Z,9.80
2019-05-01T18:35:44.914Z,9.57
2019-05-01T18:38:21.385Z,13.23
2019-05-01T18:40:57.567Z,13.60
2019-05-01T18:43:32.117Z,8.23
2019-05-01T18:46:01.546Z,7.33
2019-05-01T18:48:30.730Z,7.73
2019-05-01T18:50:59.881Z,7.77
2019-05-01T18:53:29.195Z,7.77
2019-05-01T18:56:01.435Z,8.00
2019-05-01T18:58:29.270Z,8.37
2019-05-01T19:01:04.133Z,7.40
2019-05-01T19:03:31.159Z,7.43
2019-05-01T19:06:00.404Z,7.97
2019-05-01T19:08:29.598Z,8.60
2019-05-01T19:11:11.069Z,9.10
2019-05-01T19:13:29.769Z,8.13
2019-05-01T19:16:03.194Z,7.80
2019-05-01T19:18:30.013Z,7.87
2019-05-01T19:21:00.082Z,8.37
2019-05-01T19:23:29.926Z,8.83
2019-05-01T19:26:03.547Z,8.57
2019-05-01T19:28:31.775Z,8.63
2019-05-01T19:31:00.964Z,7.77
2019-05-01T19:33:30.334Z,8.53
2019-05-01T19:36:02.508Z,8.60
2019-05-01T19:38:35.065Z,8.20
2019-05-01T19:41:03.551Z,8.20
2019-05-01T19:43:35.924Z,8.40
2019-05-01T19:46:03.228Z,9.60
2019-05-01T19:48:32.738Z,11.50
2019-05-01T19:51:02.002Z,9.60
2019-05-01T19:53:31.481Z,12.13
2019-05-01T19:56:00.754Z,8.53
2019-05-01T19:58:30.480Z,8.53
2019-05-01T20:01:04.009Z,7.53
2019-05-01T20:03:36.328Z,8.03
2019-05-01T20:06:05.603Z,8.40
2019-05-01T20:08:34.777Z,8.30
2019-05-01T20:11:04.059Z,7.97
2019-05-01T20:13:35.874Z,8.47
2019-05-01T20:16:07.526Z,8.53
2019-05-01T20:18:36.652Z,9.10
2019-05-01T20:21:05.887Z,8.50
2019-05-01T20:23:35.131Z,9.63
2019-05-01T20:26:04.301Z,8.70
2019-05-01T20:28:33.517Z,8.60
2019-05-01T20:31:02.823Z,8.87
2019-05-01T20:33:33.449Z,8.83
2019-05-01T20:36:05.368Z,10.90
2019-05-01T20:38:33.938Z,10.30
2019-05-01T20:41:03.281Z,8.60
2019-05-01T20:43:33.590Z,8.10
2019-05-01T20:46:03.045Z,7.97
2019-05-01T20:48:32.290Z,8.00
2019-05-01T20:51:01.473Z,7.67
2019-05-01T20:53:30.730Z,7.87
2019-05-01T20:56:06.823Z,7.67
2019-05-01T20:58:36.021Z,8.30
2019-05-01T21:01:05.263Z,8.53
2019-05-01T21:03:36.273Z,7.83
2019-05-01T21:06:11.563Z,8.37
2019-05-01T21:08:48.011Z,7.87
2019-05-01T21:11:22.413Z,8.30
2019-05-01T21:13:56.687Z,7.80
2019-05-01T21:16:22.495Z,8.00
2019-05-01T21:18:51.637Z,8.40
2019-05-01T21:21:20.882Z,8.17
2019-05-01T21:23:53.342Z,8.43
2019-05-01T21:26:20.918Z,8.73
2019-05-01T21:28:50.122Z,8.37
2019-05-01T21:31:19.359Z,8.33
2019-05-01T21:33:50.547Z,8.97
2019-05-01T21:36:19.459Z,8.60
2019-05-01T21:38:48.630Z,7.97
2019-05-01T21:41:18.433Z,8.77
2019-05-01T21:43:47.740Z,8.50
2019-05-01T21:46:16.963Z,8.50
2019-05-01T21:48:46.570Z,9.03
2019-05-01T21:51:17.505Z,9.07
2019-05-01T21:53:46.685Z,9.30
2019-05-01T21:56:15.949Z,10.13
2019-05-01T21:58:45.312Z,9.30
2019-05-01T22:01:14.687Z,9.23
2019-05-01T22:03:44.064Z,10.27
2019-05-01T22:06:15.353Z,9.57
2019-05-01T22:08:44.185Z,8.93
2019-05-01T22:11:13.378Z,10.17
2019-05-01T22:13:42.686Z,9.83
2019-05-01T22:16:22.396Z,9.87
2019-05-01T22:18:58.386Z,9.93
2019-05-01T22:21:45.476Z,9.30
2019-05-01T22:24:23.084Z,9.30
2019-05-01T22:26:58.727Z,9.00
2019-05-01T22:29:32.286Z,9.43
2019-05-01T22:32:12.042Z,9.47
2019-05-01T22:34:48.330Z,9.50
2019-05-01T22:37:17.608Z,8.97
2019-05-01T22:39:50.255Z,8.73
2019-05-01T22:42:19.507Z,9.37
2019-05-01T22:44:48.653Z,9.07
2019-05-01T22:47:18.017Z,8.50
2019-05-01T22:49:47.283Z,8.87
2019-05-01T22:52:16.562Z,9.73
2019-05-01T22:54:48.868Z,9.17
2019-05-01T22:57:18.301Z,9.83
2019-05-01T22:59:47.582Z,10.43
2019-05-01T23:02:28.336Z,11.10
2019-05-01T23:04:55.611Z,10.80
2019-05-01T23:07:25.195Z,10.97
2019-05-01T23:09:54.459Z,10.37
2019-05-01T23:12:24.560Z,9.87
2019-05-01T23:14:53.878Z,10.10
2019-05-01T23:17:28.969Z,10.00
2019-05-01T23:19:58.918Z,10.13
2019-05-01T23:22:29.160Z,9.73
2019-05-01T23:24:58.762Z,9.40
2019-05-01T23:27:29.310Z,9.90
2019-05-01T23:29:58.843Z,9.40
2019-05-01T23:32:28.298Z,9.37
2019-05-01T23:34:58.106Z,9.87
2019-05-01T23:37:27.615Z,9.20
2019-05-01T23:39:57.102Z,9.67
2019-05-01T23:42:26.324Z,9.20
2019-05-01T23:44:55.979Z,9.30
2019-05-01T23:47:25.378Z,9.23
2019-05-01T23:49:54.702Z,9.63
2019-05-01T23:52:23.905Z,9.70
2019-05-01T23:54:53.278Z,10.20
2019-05-01T23:57:22.534Z,9.30
2019-05-01T23:59:51.900Z,9.53
